createdAt,value
2019-05-14T00:01:37.367Z,8.97
2019-05-14T00:04:03.259Z,9.41
2019-05-14T00:06:31.107Z,9.41
2019-05-14T00:08:56.879Z,9.24
2019-05-14T00:11:22.730Z,9.13
2019-05-14T00:13:48.581Z,8.87
2019-05-14T00:16:14.432Z,8.66
2019-05-14T00:18:41.986Z,8.79
2019-05-14T00:21:08.062Z,8.69
2019-05-14T00:23:33.923Z,8.67
2019-05-14T00:26:01.695Z,8.88
2019-05-14T00:28:27.545Z,8.79
2019-05-14T00:30:53.398Z,8.60
2019-05-14T00:33:19.278Z,8.49
2019-05-14T00:35:45.137Z,8.49
2019-05-14T00:38:11.933Z,8.40
2019-05-14T00:40:37.898Z,8.29
2019-05-14T00:43:03.772Z,8.32
2019-05-14T00:45:31.325Z,8.73
2019-05-14T00:47:58.301Z,8.91
2019-05-14T00:50:24.172Z,8.70
2019-05-14T00:52:51.678Z,8.46
2019-05-14T00:55:17.685Z,8.38
2019-05-14T00:57:43.541Z,8.46
2019-05-14T01:00:11.591Z,8.28
2019-05-14T01:02:37.370Z,8.04
2019-05-14T01:05:05.629Z,8.04
2019-05-14T01:07:31.704Z,8.07
2019-05-14T01:09:57.577Z,8.20
2019-05-14T01:12:23.449Z,8.24
2019-05-14T01:14:51.496Z,7.99
2019-05-14T01:17:17.057Z,8.37
2019-05-14T01:19:42.918Z,8.39
2019-05-14T01:22:08.776Z,8.40
2019-05-14T01:24:34.635Z,8.48
2019-05-14T01:27:01.627Z,8.48
2019-05-14T01:29:27.756Z,8.00
2019-05-14T01:31:53.625Z,8.33
2019-05-14T01:34:21.464Z,8.00
2019-05-14T01:36:47.240Z,8.37
2019-05-14T01:39:13.112Z,8.01
2019-05-14T01:41:38.962Z,7.81
2019-05-14T01:44:04.814Z,8.06
2019-05-14T01:46:31.645Z,7.72
2019-05-14T01:48:57.731Z,7.58
2019-05-14T01:51:23.774Z,8.00
2019-05-14T01:53:51.938Z,7.54
2019-05-14T01:56:17.390Z,7.25
2019-05-14T01:58:43.292Z,7.33
2019-05-14T02:01:09.158Z,7.25
2019-05-14T02:03:35.017Z,7.87
2019-05-14T02:06:01.509Z,8.01
2019-05-14T02:08:27.739Z,7.38
2019-05-14T02:10:53.607Z,7.25
2019-05-14T02:13:21.418Z,7.15
2019-05-14T02:15:47.235Z,7.13
2019-05-14T02:18:13.303Z,7.13
2019-05-14T02:20:41.441Z,7.06
2019-05-14T02:23:07.427Z,7.60
2019-05-14T02:25:33.292Z,7.59
2019-05-14T02:28:01.176Z,7.21
2019-05-14T02:30:41.359Z,7.00
2019-05-14T02:32:54.694Z,7.33
2019-05-14T02:35:20.634Z,7.14
2019-05-14T02:37:50.196Z,7.04
2019-05-14T02:40:14.681Z,6.98
2019-05-14T02:42:40.633Z,6.97
2019-05-14T02:45:08.922Z,6.98
2019-05-14T02:47:34.921Z,6.91
2019-05-14T02:50:00.789Z,6.85
2019-05-14T02:52:29.179Z,6.95
2019-05-14T02:54:54.445Z,6.84
2019-05-14T02:57:20.364Z,6.85
2019-05-14T02:59:46.246Z,6.98
2019-05-14T03:02:12.106Z,6.90
2019-05-14T03:04:39.473Z,7.24
2019-05-14T03:07:05.818Z,6.87
2019-05-14T03:09:31.694Z,6.88
2019-05-14T03:11:59.508Z,6.94
2019-05-14T03:14:25.317Z,6.77
2019-05-14T03:16:51.179Z,6.89
2019-05-14T03:19:19.603Z,7.27
2019-05-14T03:21:44.954Z,7.30
2019-05-14T03:24:10.943Z,7.04
2019-05-14T03:26:39.854Z,6.82
2019-05-14T03:29:04.878Z,6.74
2019-05-14T03:31:32.966Z,6.60
2019-05-14T03:34:03.108Z,6.58
2019-05-14T03:36:33.481Z,6.68
2019-05-14T03:38:54.296Z,6.58
2019-05-14T03:41:20.680Z,6.55
2019-05-14T03:43:49.147Z,6.55
2019-05-14T03:46:14.401Z,6.51
2019-05-14T03:48:40.561Z,6.47
2019-05-14T03:51:09.004Z,6.47
2019-05-14T03:53:52.233Z,6.41
2019-05-14T03:56:02.790Z,6.76
2019-05-14T03:58:29.969Z,6.69
2019-05-14T04:01:00.683Z,6.47
2019-05-14T04:03:29.585Z,6.68
2019-05-14T04:05:59.405Z,6.49
2019-05-14T04:08:29.061Z,6.46
2019-05-14T04:10:54.551Z,6.68
2019-05-14T04:13:22.287Z,6.63
2019-05-14T04:15:50.253Z,6.52
2019-05-14T04:18:18.510Z,6.39
2019-05-14T04:20:45.582Z,6.36
2019-05-14T04:23:14.249Z,6.42
2019-05-14T04:25:40.123Z,6.44
2019-05-14T04:28:12.526Z,6.77
2019-05-14T04:30:40.300Z,6.85
2019-05-14T04:33:10.377Z,6.59
2019-05-14T04:35:34.914Z,6.51
2019-05-14T04:38:00.808Z,6.75
2019-05-14T04:40:29.623Z,6.68
2019-05-14T04:42:54.462Z,6.71
2019-05-14T04:45:20.302Z,6.87
2019-05-14T04:47:49.533Z,6.87
2019-05-14T04:50:14.239Z,6.76
2019-05-14T04:52:40.743Z,6.73
2019-05-14T04:55:09.630Z,6.82
2019-05-14T04:57:34.665Z,7.26
2019-05-14T05:00:00.536Z,7.49
2019-05-14T05:02:29.830Z,7.65
2019-05-14T05:04:54.151Z,7.29
2019-05-14T05:07:20.007Z,7.52
2019-05-14T05:09:45.873Z,7.67
2019-05-14T05:12:11.760Z,7.70
2019-05-14T05:14:38.846Z,8.03
2019-05-14T05:17:05.222Z,7.90
2019-05-14T05:19:31.065Z,7.78
2019-05-14T05:21:58.718Z,7.84
2019-05-14T05:24:24.712Z,7.79
2019-05-14T05:26:50.570Z,8.05
2019-05-14T05:29:18.642Z,8.32
2019-05-14T05:31:44.280Z,8.45
2019-05-14T05:34:10.145Z,8.52
2019-05-14T05:36:38.029Z,8.43
2019-05-14T05:39:05.392Z,8.55
2019-05-14T05:41:31.261Z,8.62
2019-05-14T05:43:58.864Z,8.77
2019-05-14T05:46:24.943Z,8.78
2019-05-14T05:48:50.821Z,8.88
2019-05-14T05:51:18.709Z,9.17
2019-05-14T05:53:44.499Z,9.27
2019-05-14T05:56:10.370Z,9.33
2019-05-14T05:58:36.243Z,9.04
2019-05-14T06:01:02.107Z,9.12
2019-05-14T06:03:30.034Z,9.13
2019-05-14T06:05:59.155Z,9.00
2019-05-14T06:08:24.500Z,9.04
2019-05-14T06:10:50.364Z,8.85
2019-05-14T06:13:18.273Z,9.01
2019-05-14T06:15:48.508Z,9.27
2019-05-14T06:18:18.067Z,9.23
2019-05-14T06:20:39.778Z,9.17
2019-05-14T06:23:08.294Z,9.42
2019-05-14T06:25:33.924Z,9.54
2019-05-14T06:27:59.780Z,9.28
2019-05-14T06:30:39.596Z,9.34
2019-05-14T06:33:05.502Z,9.51
2019-05-14T06:35:31.330Z,9.75
2019-05-14T06:37:58.242Z,9.80
2019-05-14T06:40:24.468Z,9.51
2019-05-14T06:42:50.393Z,9.74
2019-05-14T06:45:18.611Z,9.63
2019-05-14T06:47:44.001Z,9.64
2019-05-14T06:50:09.966Z,9.98
2019-05-14T06:52:35.825Z,10.31
2019-05-14T06:55:03.890Z,10.05
2019-05-14T06:57:29.780Z,10.15
2019-05-14T06:59:55.664Z,9.92
2019-05-14T07:02:21.717Z,10.19
2019-05-14T07:04:48.424Z,10.28
2019-05-14T07:07:14.589Z,10.24
2019-05-14T07:09:40.447Z,10.70
2019-05-14T07:12:08.873Z,10.73
2019-05-14T07:14:34.072Z,11.17
2019-05-14T07:16:59.937Z,11.27
2019-05-14T07:19:25.818Z,11.39
2019-05-14T07:21:51.688Z,11.86
2019-05-14T07:24:19.609Z,12.20
2019-05-14T07:26:45.288Z,12.11
2019-05-14T07:29:11.738Z,11.92
2019-05-14T07:31:38.437Z,12.63
2019-05-14T07:34:04.517Z,12.82
2019-05-14T07:36:30.398Z,12.68
2019-05-14T07:38:57.582Z,12.34
2019-05-14T07:41:24.009Z,12.36
2019-05-14T07:43:49.882Z,11.99
2019-05-14T07:46:15.739Z,12.04
2019-05-14T07:48:41.600Z,12.55
2019-05-14T07:51:08.847Z,12.37
2019-05-14T07:53:38.919Z,12.84
2019-05-14T07:56:02.826Z,12.83
2019-05-14T07:58:28.676Z,13.10
2019-05-14T08:00:54.565Z,13.97
2019-05-14T08:03:20.429Z,13.48
2019-05-14T08:05:48.264Z,13.82
2019-05-14T08:08:14.066Z,13.59
2019-05-14T08:10:39.915Z,13.06
2019-05-14T08:13:08.337Z,13.37
2019-05-14T08:15:33.735Z,13.18
2019-05-14T08:17:59.598Z,13.01
2019-05-14T08:20:25.466Z,12.97
2019-05-14T08:22:51.351Z,12.74
2019-05-14T08:25:19.016Z,13.37
2019-05-14T08:27:44.985Z,12.98
2019-05-14T08:30:11.352Z,12.66
2019-05-14T08:32:39.087Z,13.25
2019-05-14T08:35:05.169Z,13.42
2019-05-14T08:37:31.020Z,13.76
2019-05-14T08:39:58.824Z,14.17
2019-05-14T08:42:24.653Z,14.46
2019-05-14T08:44:51.424Z,14.86
2019-05-14T08:47:18.385Z,14.55
2019-05-14T08:49:46.648Z,14.50
2019-05-14T08:52:15.882Z,14.45
2019-05-14T08:54:40.161Z,14.21
2019-05-14T08:57:06.196Z,14.44
2019-05-14T08:59:32.882Z,14.73
2019-05-14T09:02:06.162Z,13.64
2019-05-14T09:04:29.807Z,13.62
2019-05-14T09:06:54.307Z,14.36
2019-05-14T09:09:22.121Z,14.19
2019-05-14T09:11:50.437Z,14.42
2019-05-14T09:14:15.788Z,13.88
2019-05-14T09:16:46.726Z,14.96
2019-05-14T09:19:09.406Z,14.53
2019-05-14T09:21:35.274Z,14.46
2019-05-14T09:24:01.140Z,14.49
2019-05-14T09:26:28.519Z,14.58
2019-05-14T09:28:54.466Z,14.05
2019-05-14T09:31:20.361Z,14.48
2019-05-14T09:33:46.190Z,14.65
2019-05-14T09:36:19.608Z,14.07
2019-05-14T09:38:42.262Z,14.34
2019-05-14T09:41:14.376Z,14.02
2019-05-14T09:43:35.707Z,14.63
2019-05-14T09:46:01.575Z,15.40
2019-05-14T09:48:28.603Z,14.85
2019-05-14T09:50:54.660Z,15.46
2019-05-14T09:53:20.550Z,15.73
2019-05-14T09:55:46.414Z,15.46
2019-05-14T09:58:12.279Z,14.62
2019-05-14T10:00:38.997Z,15.01
2019-05-14T10:03:05.126Z,14.87
2019-05-14T10:05:30.981Z,15.14
2019-05-14T10:07:59.271Z,15.02
2019-05-14T10:10:24.649Z,14.41
2019-05-14T10:12:56.310Z,15.12
2019-05-14T10:15:18.450Z,15.78
2019-05-14T10:17:44.332Z,15.42
2019-05-14T10:20:10.306Z,15.04
2019-05-14T10:22:36.388Z,14.73
2019-05-14T10:25:03.347Z,15.36
2019-05-14T10:27:29.198Z,14.85
2019-05-14T10:29:55.065Z,15.22
2019-05-14T10:32:20.916Z,15.76
2019-05-14T10:34:48.537Z,15.11
2019-05-14T10:37:14.556Z,15.14
2019-05-14T10:39:40.436Z,14.96
2019-05-14T10:42:08.666Z,15.36
2019-05-14T10:44:34.072Z,14.98
2019-05-14T10:47:00.201Z,15.10
2019-05-14T10:49:26.051Z,15.10
2019-05-14T10:51:51.933Z,15.52
2019-05-14T10:54:24.969Z,15.22
2019-05-14T10:56:45.559Z,15.80
2019-05-14T10:59:11.417Z,15.38
2019-05-14T11:01:39.086Z,15.35
2019-05-14T11:04:05.060Z,15.14
2019-05-14T11:06:30.934Z,15.27
2019-05-14T11:08:56.798Z,15.22
2019-05-14T11:11:22.770Z,15.28
2019-05-14T11:13:48.642Z,15.53
2019-05-14T11:16:14.510Z,15.74
2019-05-14T11:18:40.523Z,15.11
2019-05-14T11:21:19.913Z,15.49
2019-05-14T11:23:34.264Z,15.50
2019-05-14T11:26:00.105Z,15.91
2019-05-14T11:28:28.343Z,15.99
2019-05-14T11:30:53.769Z,15.85
2019-05-14T11:33:19.729Z,16.34
2019-05-14T11:35:45.564Z,15.49
2019-05-14T11:38:27.946Z,15.66
2019-05-14T11:40:39.202Z,15.48
2019-05-14T11:43:05.077Z,16.11
2019-05-14T11:45:30.953Z,15.96
2019-05-14T11:47:58.439Z,16.11
2019-05-14T11:50:24.381Z,16.25
2019-05-14T11:52:50.253Z,16.57
2019-05-14T11:55:18.606Z,16.36
2019-05-14T11:57:43.982Z,15.95
2019-05-14T12:00:10.462Z,15.97
2019-05-14T12:02:38.436Z,15.81
2019-05-14T12:05:05.536Z,15.84
2019-05-14T12:07:31.393Z,15.74
2019-05-14T12:09:57.253Z,16.01
2019-05-14T12:12:23.106Z,16.00
2019-05-14T12:14:48.997Z,16.48
2019-05-14T12:17:14.858Z,16.12
2019-05-14T12:19:43.540Z,16.30
2019-05-14T12:22:11.929Z,16.26
2019-05-14T12:24:38.555Z,16.05
2019-05-14T12:27:04.027Z,16.08
2019-05-14T12:29:29.903Z,16.11
2019-05-14T12:31:55.763Z,15.90
2019-05-14T12:34:21.671Z,16.68
2019-05-14T12:36:49.317Z,16.77
2019-05-14T12:39:15.292Z,16.33
2019-05-14T12:41:41.146Z,15.74
2019-05-14T12:44:09.281Z,16.40
2019-05-14T12:46:34.799Z,16.59
2019-05-14T12:49:01.249Z,16.49
2019-05-14T12:51:27.235Z,16.42
2019-05-14T12:53:53.100Z,16.66
2019-05-14T12:56:19.129Z,16.94
2019-05-14T12:58:46.763Z,17.05
2019-05-14T13:01:13.794Z,16.90
2019-05-14T13:03:40.313Z,16.72
2019-05-14T13:06:06.177Z,16.54
2019-05-14T13:08:32.059Z,17.01
2019-05-14T13:10:58.749Z,16.95
2019-05-14T13:13:24.705Z,16.58
2019-05-14T13:15:50.573Z,17.13
2019-05-14T13:18:19.169Z,17.07
2019-05-14T13:20:44.240Z,16.78
2019-05-14T13:23:10.232Z,16.75
2019-05-14T13:25:39.020Z,16.72
2019-05-14T13:28:04.614Z,17.02
2019-05-14T13:30:30.603Z,17.30
2019-05-14T13:32:59.058Z,17.17
2019-05-14T13:35:24.238Z,17.01
2019-05-14T13:37:50.095Z,16.97
2019-05-14T13:40:16.288Z,16.91
2019-05-14T13:42:44.603Z,16.84
2019-05-14T13:45:10.612Z,17.02
2019-05-14T13:47:38.714Z,17.47
2019-05-14T13:50:08.290Z,17.14
2019-05-14T13:52:33.907Z,17.51
2019-05-14T13:55:00.058Z,17.23
2019-05-14T13:57:28.542Z,17.37
2019-05-14T13:59:53.759Z,16.90
2019-05-14T14:02:19.615Z,17.07
2019-05-14T14:04:45.485Z,17.02
2019-05-14T14:07:11.441Z,16.98
2019-05-14T14:09:39.576Z,17.05
2019-05-14T14:12:05.052Z,17.14
2019-05-14T14:14:30.924Z,16.88
2019-05-14T14:16:58.250Z,17.15
2019-05-14T14:19:24.257Z,17.22
2019-05-14T14:21:50.123Z,17.32
2019-05-14T14:24:15.989Z,17.12
2019-05-14T14:26:41.952Z,17.20
2019-05-14T14:29:09.240Z,17.28
2019-05-14T14:31:35.371Z,17.44
2019-05-14T14:34:01.252Z,17.31
2019-05-14T14:36:29.962Z,17.11
2019-05-14T14:38:54.877Z,16.75
2019-05-14T14:41:20.729Z,16.83
2019-05-14T14:43:52.903Z,16.83
2019-05-14T14:46:14.610Z,17.14
2019-05-14T14:48:40.594Z,17.11
2019-05-14T14:51:08.491Z,17.03
2019-05-14T14:53:51.307Z,17.28
2019-05-14T14:56:02.029Z,17.02
2019-05-14T14:58:28.640Z,16.79
2019-05-14T15:00:54.631Z,16.89
2019-05-14T15:03:21.182Z,16.79
2019-05-14T15:05:49.904Z,16.82
2019-05-14T15:08:15.341Z,16.67
2019-05-14T15:10:41.204Z,16.83
2019-05-14T15:13:09.325Z,16.97
2019-05-14T15:15:34.845Z,17.08
2019-05-14T15:18:00.705Z,16.78
2019-05-14T15:20:29.002Z,16.88
2019-05-14T15:22:54.351Z,16.87
2019-05-14T15:25:20.204Z,16.63
2019-05-14T15:27:46.067Z,17.06
2019-05-14T15:30:12.158Z,16.99
2019-05-14T15:32:38.025Z,16.90
2019-05-14T15:35:10.753Z,16.93
2019-05-14T15:37:34.706Z,16.95
2019-05-14T15:40:03.786Z,16.68
2019-05-14T15:42:28.535Z,16.65
2019-05-14T15:44:56.124Z,16.62
2019-05-14T15:47:22.239Z,16.84
2019-05-14T15:49:48.901Z,16.81
2019-05-14T15:52:14.965Z,16.78
2019-05-14T15:54:46.776Z,16.66
2019-05-14T15:57:09.139Z,16.74
2019-05-14T15:59:35.060Z,17.09
2019-05-14T16:02:00.940Z,17.21
2019-05-14T16:04:28.700Z,17.54
2019-05-14T16:06:54.792Z,17.43
2019-05-14T16:09:20.688Z,17.61
2019-05-14T16:11:48.309Z,17.37
2019-05-14T16:14:14.330Z,17.66
2019-05-14T16:16:40.197Z,17.43
2019-05-14T16:19:08.091Z,17.39
2019-05-14T16:21:33.908Z,17.39
2019-05-14T16:23:59.767Z,17.59
2019-05-14T16:26:25.724Z,17.36
2019-05-14T16:28:51.577Z,17.56
2019-05-14T16:31:19.425Z,17.47
2019-05-14T16:33:45.286Z,17.20
2019-05-14T16:36:11.174Z,17.24
2019-05-14T16:38:39.509Z,17.23
2019-05-14T16:41:05.012Z,17.14
2019-05-14T16:43:32.431Z,17.28
2019-05-14T16:45:59.861Z,17.00
2019-05-14T16:48:25.826Z,16.94
2019-05-14T16:50:51.684Z,17.38
2019-05-14T16:53:19.532Z,17.04
2019-05-14T16:55:45.531Z,17.11
2019-05-14T16:58:11.509Z,16.91
2019-05-14T17:00:37.588Z,17.29
2019-05-14T17:03:03.440Z,17.09
2019-05-14T17:05:30.206Z,16.79
2019-05-14T17:07:58.543Z,16.86
2019-05-14T17:10:24.040Z,17.10
2019-05-14T17:12:56.852Z,16.69
2019-05-14T17:15:18.184Z,16.93
2019-05-14T17:17:44.037Z,17.00
2019-05-14T17:20:09.888Z,17.00
2019-05-14T17:22:35.740Z,17.05
2019-05-14T17:25:01.642Z,16.99
2019-05-14T17:27:28.522Z,16.87
2019-05-14T17:29:54.652Z,16.58
2019-05-14T17:32:20.501Z,16.55
2019-05-14T17:34:48.906Z,16.72
2019-05-14T17:37:14.243Z,16.74
2019-05-14T17:39:40.105Z,16.50
2019-05-14T17:42:11.352Z,16.38
2019-05-14T17:44:33.760Z,16.37
2019-05-14T17:46:59.626Z,16.38
2019-05-14T17:49:25.500Z,16.43
2019-05-14T17:51:51.350Z,16.27
2019-05-14T17:54:18.484Z,16.60
2019-05-14T17:56:44.563Z,16.31
2019-05-14T17:59:10.436Z,16.32
2019-05-14T18:01:36.337Z,16.23
2019-05-14T18:04:02.412Z,16.22
2019-05-14T18:06:28.698Z,16.17
2019-05-14T18:08:54.652Z,16.23
2019-05-14T18:11:20.549Z,16.31
2019-05-14T18:13:48.428Z,16.11
2019-05-14T18:16:14.378Z,16.26
2019-05-14T18:18:40.242Z,16.32
2019-05-14T18:21:06.074Z,16.32
2019-05-14T18:23:31.993Z,16.22
2019-05-14T18:26:04.957Z,16.23
2019-05-14T18:28:25.602Z,15.84
2019-05-14T18:30:51.488Z,15.80
2019-05-14T18:33:18.766Z,15.78
2019-05-14T18:35:47.451Z,15.84
2019-05-14T18:38:12.539Z,15.87
2019-05-14T18:40:39.753Z,16.02
2019-05-14T18:43:08.691Z,15.92
2019-05-14T18:45:34.576Z,15.80
2019-05-14T18:48:00.452Z,15.79
2019-05-14T18:50:28.749Z,15.63
2019-05-14T18:52:54.639Z,15.56
2019-05-14T18:55:20.498Z,15.54
2019-05-14T18:57:48.676Z,15.44
2019-05-14T19:00:15.320Z,15.45
2019-05-14T19:02:44.935Z,15.43
2019-05-14T19:05:11.612Z,15.41
2019-05-14T19:07:39.497Z,15.30
2019-05-14T19:10:06.114Z,15.23
2019-05-14T19:12:31.993Z,15.41
2019-05-14T19:14:58.976Z,15.32
2019-05-14T19:17:25.129Z,15.31
2019-05-14T19:19:51.007Z,15.15
2019-05-14T19:22:16.866Z,15.20
2019-05-14T19:24:42.709Z,14.94
2019-05-14T19:27:09.164Z,14.93
2019-05-14T19:29:35.143Z,14.95
2019-05-14T19:32:00.997Z,14.86
2019-05-14T19:34:28.707Z,14.78
2019-05-14T19:36:54.644Z,14.78
2019-05-14T19:39:20.507Z,14.70
2019-05-14T19:41:48.274Z,14.55
2019-05-14T19:44:14.121Z,14.52
2019-05-14T19:46:40.021Z,14.48
2019-05-14T19:49:08.010Z,14.39
2019-05-14T19:51:33.691Z,14.25
2019-05-14T19:53:59.651Z,14.21
2019-05-14T19:56:25.526Z,14.11
2019-05-14T19:58:51.400Z,14.06
2019-05-14T20:01:19.354Z,13.95
2019-05-14T20:03:45.053Z,13.96
2019-05-14T20:06:10.919Z,13.79
2019-05-14T20:08:38.812Z,13.88
2019-05-14T20:11:04.669Z,13.91
2019-05-14T20:13:30.875Z,13.75
2019-05-14T20:15:58.914Z,13.52
2019-05-14T20:18:24.621Z,13.50
2019-05-14T20:20:50.653Z,13.34
2019-05-14T20:23:18.563Z,13.28
2019-05-14T20:25:44.252Z,13.19
2019-05-14T20:28:10.125Z,13.24
2019-05-14T20:30:38.587Z,13.17
2019-05-14T20:33:03.760Z,13.13
2019-05-14T20:35:34.668Z,13.27
2019-05-14T20:37:58.623Z,13.27
2019-05-14T20:40:24.568Z,13.07
2019-05-14T20:42:50.447Z,13.19
2019-05-14T20:45:18.984Z,13.08
2019-05-14T20:47:44.365Z,13.09
2019-05-14T20:50:10.730Z,13.05
2019-05-14T20:52:36.628Z,12.88
2019-05-14T20:55:04.973Z,12.86
2019-05-14T20:57:33.485Z,12.88
2019-05-14T20:59:58.924Z,12.68
2019-05-14T21:02:24.817Z,12.66
2019-05-14T21:04:54.791Z,12.68
2019-05-14T21:07:18.553Z,12.46
2019-05-14T21:09:44.460Z,12.63
2019-05-14T21:12:10.369Z,12.61
2019-05-14T21:14:41.048Z,12.51
2019-05-14T21:17:04.163Z,12.49
2019-05-14T21:19:30.073Z,12.33
2019-05-14T21:21:58.190Z,12.28
2019-05-14T21:24:23.877Z,12.18
2019-05-14T21:26:52.666Z,12.23
2019-05-14T21:29:18.592Z,12.21
2019-05-14T21:31:44.529Z,12.16
2019-05-14T21:34:10.451Z,12.05
2019-05-14T21:36:36.447Z,12.04
2019-05-14T21:39:04.845Z,11.87
2019-05-14T21:41:30.763Z,11.88
2019-05-14T21:43:58.377Z,11.84
2019-05-14T21:46:24.547Z,11.99
2019-05-14T21:48:50.460Z,12.12
2019-05-14T21:51:18.020Z,11.97
2019-05-14T21:53:44.689Z,11.97
2019-05-14T21:56:10.611Z,11.90
2019-05-14T21:58:38.604Z,11.90
2019-05-14T22:01:05.239Z,11.82
2019-05-14T22:03:31.140Z,11.91
2019-05-14T22:05:59.361Z,11.85
2019-05-14T22:08:25.136Z,11.89
2019-05-14T22:10:51.046Z,11.80
2019-05-14T22:13:18.164Z,11.80
2019-05-14T22:15:44.192Z,11.73
2019-05-14T22:18:17.247Z,11.75
2019-05-14T22:20:38.712Z,11.68
2019-05-14T22:23:04.789Z,11.60
2019-05-14T22:25:30.699Z,11.65
2019-05-14T22:28:09.000Z,11.62
2019-05-14T22:30:24.470Z,11.78
2019-05-14T22:32:50.361Z,11.60
2019-05-14T22:35:18.546Z,11.65
2019-05-14T22:37:44.088Z,11.64
2019-05-14T22:40:10.429Z,11.52
2019-05-14T22:42:36.325Z,11.79
2019-05-14T22:45:04.658Z,11.64
2019-05-14T22:47:30.562Z,11.44
2019-05-14T22:49:59.159Z,11.35
2019-05-14T22:52:24.299Z,11.39
2019-05-14T22:54:50.207Z,11.40
2019-05-14T22:57:16.138Z,11.39
2019-05-14T22:59:42.031Z,11.06
2019-05-14T23:02:11.117Z,11.15
2019-05-14T23:04:35.740Z,11.35
2019-05-14T23:07:01.650Z,11.43
2019-05-14T23:09:27.555Z,11.41
2019-05-14T23:11:53.494Z,11.45
2019-05-14T23:14:19.423Z,11.43
2019-05-14T23:16:45.341Z,11.42
2019-05-14T23:19:11.239Z,11.35
2019-05-14T23:21:39.086Z,11.31
2019-05-14T23:24:05.001Z,11.20
2019-05-14T23:26:30.918Z,11.20
2019-05-14T23:28:58.773Z,11.12
2019-05-14T23:31:24.909Z,11.11
2019-05-14T23:33:50.784Z,11.08
2019-05-14T23:36:18.335Z,10.75
2019-05-14T23:38:44.597Z,10.88
2019-05-14T23:41:10.510Z,11.01
2019-05-14T23:43:38.832Z,10.94
2019-05-14T23:46:04.210Z,10.93
2019-05-14T23:48:30.147Z,10.81
2019-05-14T23:50:58.346Z,10.87
2019-05-14T23:53:23.955Z,10.91
2019-05-14T23:55:49.872Z,10.62
2019-05-14T23:58:15.777Z,10.64
